sensor_id;sensor_type;location;lat;lon;timestamp;pressure;altitude;pressure_sealevel;temperature
76901;BMP280;65859;43.020;25.096;2023-01-23T00:01:16;99980.13;;;4.78
76901;BMP280;65859;43.020;25.096;2023-01-23T00:03:42;99977.53;;;5.14
76901;BMP280;65859;43.020;25.096;2023-01-23T00:06:14;99987.03;;;5.61
76901;BMP280;65859;43.020;25.096;2023-01-23T00:08:42;99988.28;;;5.73
76901;BMP280;65859;43.020;25.096;2023-01-23T00:11:16;99990.91;;;5.89
76901;BMP280;65859;43.020;25.096;2023-01-23T00:13:43;99975.78;;;6.10
76901;BMP280;65859;43.020;25.096;2023-01-23T00:16:16;99986.19;;;6.45
76901;BMP280;65859;43.020;25.096;2023-01-23T00:18:43;99988.84;;;6.40
76901;BMP280;65859;43.020;25.096;2023-01-23T00:21:12;99985.22;;;6.21
76901;BMP280;65859;43.020;25.096;2023-01-23T00:23:42;99989.66;;;5.61
76901;BMP280;65859;43.020;25.096;2023-01-23T00:26:15;99986.84;;;6.07
76901;BMP280;65859;43.020;25.096;2023-01-23T00:28:42;99984.88;;;5.63
76901;BMP280;65859;43.020;25.096;2023-01-23T00:31:12;99994.06;;;5.81
76901;BMP280;65859;43.020;25.096;2023-01-23T00:33:41;100001.22;;;4.88
76901;BMP280;65859;43.020;25.096;2023-01-23T00:36:08;99997.53;;;4.89
76901;BMP280;65859;43.020;25.096;2023-01-23T00:38:35;99993.88;;;5.31
76901;BMP280;65859;43.020;25.096;2023-01-23T00:41:02;99991.72;;;5.69
76901;BMP280;65859;43.020;25.096;2023-01-23T00:43:29;99996.69;;;5.81
76901;BMP280;65859;43.020;25.096;2023-01-23T00:45:56;99992.91;;;6.17
76901;BMP280;65859;43.020;25.096;2023-01-23T00:48:24;100001.91;;;6.01
76901;BMP280;65859;43.020;25.096;2023-01-23T00:50:51;100009.88;;;4.89
76901;BMP280;65859;43.020;25.096;2023-01-23T00:53:17;100011.13;;;4.66
76901;BMP280;65859;43.020;25.096;2023-01-23T00:55:43;100011.38;;;4.59
76901;BMP280;65859;43.020;25.096;2023-01-23T00:58:10;100008.72;;;4.39
76901;BMP280;65859;43.020;25.096;2023-01-23T01:00:37;100022.44;;;4.04
76901;BMP280;65859;43.020;25.096;2023-01-23T01:03:05;100028.38;;;4.31
76901;BMP280;65859;43.020;25.096;2023-01-23T01:05:31;100032.44;;;4.64
76901;BMP280;65859;43.020;25.096;2023-01-23T01:07:58;100025.44;;;5.01
76901;BMP280;65859;43.020;25.096;2023-01-23T01:10:24;100025.19;;;5.53
76901;BMP280;65859;43.020;25.096;2023-01-23T01:12:58;100021.75;;;5.58
76901;BMP280;65859;43.020;25.096;2023-01-23T01:15:26;100025.16;;;5.48
76901;BMP280;65859;43.020;25.096;2023-01-23T01:17:52;100030.16;;;5.75
76901;BMP280;65859;43.020;25.096;2023-01-23T01:20:21;100035.94;;;5.52
76901;BMP280;65859;43.020;25.096;2023-01-23T01:22:49;100032.31;;;5.27
76901;BMP280;65859;43.020;25.096;2023-01-23T01:25:15;100018.06;;;5.54
76901;BMP280;65859;43.020;25.096;2023-01-23T01:27:42;100017.31;;;5.38
76901;BMP280;65859;43.020;25.096;2023-01-23T01:30:08;100019.63;;;5.70
76901;BMP280;65859;43.020;25.096;2023-01-23T01:32:40;100022.56;;;5.53
76901;BMP280;65859;43.020;25.096;2023-01-23T01:35:07;100029.38;;;5.74
76901;BMP280;65859;43.020;25.096;2023-01-23T01:37:35;100029.88;;;5.82
76901;BMP280;65859;43.020;25.096;2023-01-23T01:40:03;100031.78;;;5.56
76901;BMP280;65859;43.020;25.096;2023-01-23T01:42:29;100034.91;;;5.17
76901;BMP280;65859;43.020;25.096;2023-01-23T01:44:59;100041.72;;;5.08
76901;BMP280;65859;43.020;25.096;2023-01-23T01:47:26;100046.56;;;3.95
76901;BMP280;65859;43.020;25.096;2023-01-23T01:49:56;100045.31;;;4.08
76901;BMP280;65859;43.020;25.096;2023-01-23T01:52:26;100031.38;;;4.60
76901;BMP280;65859;43.020;25.096;2023-01-23T01:55:03;100040.16;;;5.17
76901;BMP280;65859;43.020;25.096;2023-01-23T01:57:34;100038.06;;;5.39
76901;BMP280;65859;43.020;25.096;2023-01-23T02:00:11;100034.91;;;5.68
76901;BMP280;65859;43.020;25.096;2023-01-23T02:02:44;100037.53;;;5.73
76901;BMP280;65859;43.020;25.096;2023-01-23T02:05:16;100032.81;;;5.75
76901;BMP280;65859;43.020;25.096;2023-01-23T02:07:57;100037.03;;;5.56
76901;BMP280;65859;43.020;25.096;2023-01-23T02:10:25;100034.91;;;5.07
76901;BMP280;65859;43.020;25.096;2023-01-23T02:12:51;100031.75;;;5.05
76901;BMP280;65859;43.020;25.096;2023-01-23T02:15:19;100029.66;;;5.22
76901;BMP280;65859;43.020;25.096;2023-01-23T02:17:49;100040.09;;;4.76
76901;BMP280;65859;43.020;25.096;2023-01-23T02:20:25;100040.69;;;5.09
76901;BMP280;65859;43.020;25.096;2023-01-23T02:28:11;100054.09;;;5.12
76901;BMP280;65859;43.020;25.096;2023-01-23T02:30:38;100044.13;;;5.09
76901;BMP280;65859;43.020;25.096;2023-01-23T02:33:09;100048.59;;;5.39
76901;BMP280;65859;43.020;25.096;2023-01-23T02:35:36;100054.94;;;5.23
76901;BMP280;65859;43.020;25.096;2023-01-23T02:38:04;100053.41;;;4.02
76901;BMP280;65859;43.020;25.096;2023-01-23T02:40:36;100047.34;;;4.38
76901;BMP280;65859;43.020;25.096;2023-01-23T02:43:05;100053.72;;;4.10
76901;BMP280;65859;43.020;25.096;2023-01-23T02:45:32;100058.72;;;4.64
76901;BMP280;65859;43.020;25.096;2023-01-23T02:47:59;100057.34;;;4.52
76901;BMP280;65859;43.020;25.096;2023-01-23T02:50:27;100058.72;;;3.69
76901;BMP280;65859;43.020;25.096;2023-01-23T02:52:54;100071.94;;;3.85
76901;BMP280;65859;43.020;25.096;2023-01-23T02:55:23;100066.59;;;4.12
76901;BMP280;65859;43.020;25.096;2023-01-23T02:57:59;100059.06;;;3.51
76901;BMP280;65859;43.020;25.096;2023-01-23T03:00:45;100061.44;;;3.26
76901;BMP280;65859;43.020;25.096;2023-01-23T03:03:12;100063.41;;;3.35
76901;BMP280;65859;43.020;25.096;2023-01-23T03:05:38;100069.28;;;4.17
76901;BMP280;65859;43.020;25.096;2023-01-23T03:08:05;100066.50;;;3.32
76901;BMP280;65859;43.020;25.096;2023-01-23T03:10:31;100066.44;;;3.27
76901;BMP280;65859;43.020;25.096;2023-01-23T03:12:58;100064.91;;;3.31
76901;BMP280;65859;43.020;25.096;2023-01-23T03:15:28;100069.94;;;3.38
76901;BMP280;65859;43.020;25.096;2023-01-23T03:17:56;100065.97;;;3.62
76901;BMP280;65859;43.020;25.096;2023-01-23T03:20:22;100067.16;;;4.14
76901;BMP280;65859;43.020;25.096;2023-01-23T03:22:49;100052.03;;;4.41
76901;BMP280;65859;43.020;25.096;2023-01-23T03:25:16;100063.03;;;4.33
76901;BMP280;65859;43.020;25.096;2023-01-23T03:27:43;100062.38;;;4.53
76901;BMP280;65859;43.020;25.096;2023-01-23T03:30:13;100061.16;;;4.86
76901;BMP280;65859;43.020;25.096;2023-01-23T03:32:45;100061.94;;;4.87
76901;BMP280;65859;43.020;25.096;2023-01-23T03:35:12;100056.91;;;4.80
76901;BMP280;65859;43.020;25.096;2023-01-23T03:37:39;100056.69;;;4.92
76901;BMP280;65859;43.020;25.096;2023-01-23T03:40:08;100055.84;;;4.81
76901;BMP280;65859;43.020;25.096;2023-01-23T03:42:55;100062.00;;;5.12
76901;BMP280;65859;43.020;25.096;2023-01-23T03:45:21;100054.63;;;4.94
76901;BMP280;65859;43.020;25.096;2023-01-23T03:47:47;100054.88;;;5.03
76901;BMP280;65859;43.020;25.096;2023-01-23T03:50:14;100057.00;;;5.11
76901;BMP280;65859;43.020;25.096;2023-01-23T03:52:40;100053.34;;;5.12
76901;BMP280;65859;43.020;25.096;2023-01-23T03:55:07;100053.81;;;5.14
76901;BMP280;65859;43.020;25.096;2023-01-23T03:57:35;100047.47;;;4.79
76901;BMP280;65859;43.020;25.096;2023-01-23T04:00:02;100046.97;;;4.97
76901;BMP280;65859;43.020;25.096;2023-01-23T04:02:28;100041.22;;;5.01
76901;BMP280;65859;43.020;25.096;2023-01-23T04:04:55;100046.19;;;5.07
76901;BMP280;65859;43.020;25.096;2023-01-23T04:07:21;100045.13;;;4.93
76901;BMP280;65859;43.020;25.096;2023-01-23T04:09:47;100047.59;;;4.47
76901;BMP280;65859;43.020;25.096;2023-01-23T04:12:14;100051.81;;;4.48
76901;BMP280;65859;43.020;25.096;2023-01-23T04:14:40;100043.78;;;4.75
76901;BMP280;65859;43.020;25.096;2023-01-23T04:17:07;100039.56;;;4.74
76901;BMP280;65859;43.020;25.096;2023-01-23T04:19:34;100046.91;;;4.77
76901;BMP280;65859;43.020;25.096;2023-01-23T04:22:00;100052.69;;;4.74
76901;BMP280;65859;43.020;25.096;2023-01-23T04:24:27;100058.53;;;4.91
76901;BMP280;65859;43.020;25.096;2023-01-23T04:26:53;100055.94;;;5.02
76901;BMP280;65859;43.020;25.096;2023-01-23T04:29:20;100059.41;;;5.58
76901;BMP280;65859;43.020;25.096;2023-01-23T04:31:46;100054.59;;;6.01
76901;BMP280;65859;43.020;25.096;2023-01-23T04:34:12;100062.28;;;5.72
76901;BMP280;65859;43.020;25.096;2023-01-23T04:36:39;100071.09;;;6.37
76901;BMP280;65859;43.020;25.096;2023-01-23T04:39:05;100073.25;;;7.24
76901;BMP280;65859;43.020;25.096;2023-01-23T04:41:33;100070.84;;;7.85
76901;BMP280;65859;43.020;25.096;2023-01-23T04:43:59;100069.38;;;8.03
76901;BMP280;65859;43.020;25.096;2023-01-23T04:46:49;100072.47;;;8.05
76901;BMP280;65859;43.020;25.096;2023-01-23T04:49:16;100072.78;;;8.04
76901;BMP280;65859;43.020;25.096;2023-01-23T04:51:44;100083.69;;;8.21
76901;BMP280;65859;43.020;25.096;2023-01-23T04:54:11;100081.88;;;8.17
76901;BMP280;65859;43.020;25.096;2023-01-23T04:56:37;100087.44;;;8.15
76901;BMP280;65859;43.020;25.096;2023-01-23T04:59:03;100088.28;;;8.34
76901;BMP280;65859;43.020;25.096;2023-01-23T05:01:30;100087.69;;;8.37
76901;BMP280;65859;43.020;25.096;2023-01-23T05:03:56;100088.22;;;8.16
76901;BMP280;65859;43.020;25.096;2023-01-23T05:06:23;100082.38;;;8.19
76901;BMP280;65859;43.020;25.096;2023-01-23T05:08:49;100085.69;;;8.29
76901;BMP280;65859;43.020;25.096;2023-01-23T05:11:16;100097.06;;;8.30
76901;BMP280;65859;43.020;25.096;2023-01-23T05:13:44;100097.91;;;8.25
76901;BMP280;65859;43.020;25.096;2023-01-23T05:16:10;100102.34;;;8.30
76901;BMP280;65859;43.020;25.096;2023-01-23T05:18:37;100106.97;;;8.19
76901;BMP280;65859;43.020;25.096;2023-01-23T05:21:03;100105.19;;;8.15
76901;BMP280;65859;43.020;25.096;2023-01-23T05:23:29;100102.69;;;8.23
76901;BMP280;65859;43.020;25.096;2023-01-23T05:25:56;100111.06;;;8.30
76901;BMP280;65859;43.020;25.096;2023-01-23T05:28:22;100120.22;;;8.38
76901;BMP280;65859;43.020;25.096;2023-01-23T05:30:49;100119.75;;;8.36
76901;BMP280;65859;43.020;25.096;2023-01-23T05:33:15;100123.50;;;8.30
76901;BMP280;65859;43.020;25.096;2023-01-23T05:35:41;100127.09;;;8.39
76901;BMP280;65859;43.020;25.096;2023-01-23T05:38:10;100130.09;;;8.32
76901;BMP280;65859;43.020;25.096;2023-01-23T05:40:36;100138.00;;;8.56
76901;BMP280;65859;43.020;25.096;2023-01-23T05:43:03;100142.91;;;8.44
76901;BMP280;65859;43.020;25.096;2023-01-23T05:45:31;100143.25;;;8.61
76901;BMP280;65859;43.020;25.096;2023-01-23T05:47:57;100140.38;;;8.58
76901;BMP280;65859;43.020;25.096;2023-01-23T05:50:23;100136.34;;;8.60
76901;BMP280;65859;43.020;25.096;2023-01-23T05:52:50;100142.53;;;8.56
76901;BMP280;65859;43.020;25.096;2023-01-23T05:55:16;100150.94;;;8.58
76901;BMP280;65859;43.020;25.096;2023-01-23T05:57:43;100151.44;;;8.60
76901;BMP280;65859;43.020;25.096;2023-01-23T06:00:12;100152.88;;;8.52
76901;BMP280;65859;43.020;25.096;2023-01-23T06:02:38;100153.31;;;8.59
76901;BMP280;65859;43.020;25.096;2023-01-23T06:05:05;100156.97;;;8.63
76901;BMP280;65859;43.020;25.096;2023-01-23T06:07:32;100160.28;;;8.74
76901;BMP280;65859;43.020;25.096;2023-01-23T06:09:58;100162.81;;;8.60
76901;BMP280;65859;43.020;25.096;2023-01-23T06:12:24;100168.09;;;8.60
76901;BMP280;65859;43.020;25.096;2023-01-23T06:14:51;100166.81;;;8.58
76901;BMP280;65859;43.020;25.096;2023-01-23T06:17:18;100172.00;;;8.87
76901;BMP280;65859;43.020;25.096;2023-01-23T06:19:46;100177.38;;;9.01
76901;BMP280;65859;43.020;25.096;2023-01-23T06:22:12;100168.53;;;9.10
76901;BMP280;65859;43.020;25.096;2023-01-23T06:24:39;100173.69;;;9.21
76901;BMP280;65859;43.020;25.096;2023-01-23T06:27:05;100180.00;;;9.25
76901;BMP280;65859;43.020;25.096;2023-01-23T06:29:36;100181.97;;;9.33
76901;BMP280;65859;43.020;25.096;2023-01-23T06:32:03;100181.25;;;9.46
76901;BMP280;65859;43.020;25.096;2023-01-23T06:34:30;100181.94;;;9.52
76901;BMP280;65859;43.020;25.096;2023-01-23T06:55:40;100205.78;;;10.31
76901;BMP280;65859;43.020;25.096;2023-01-23T06:58:08;100201.53;;;10.30
76901;BMP280;65859;43.020;25.096;2023-01-23T07:00:34;100201.16;;;10.36
76901;BMP280;65859;43.020;25.096;2023-01-23T07:03:01;100201.84;;;10.42
76901;BMP280;65859;43.020;25.096;2023-01-23T07:05:30;100202.31;;;10.44
76901;BMP280;65859;43.020;25.096;2023-01-23T07:07:57;100203.72;;;10.55
76901;BMP280;65859;43.020;25.096;2023-01-23T07:10:24;100206.91;;;10.66
76901;BMP280;65859;43.020;25.096;2023-01-23T07:12:51;100220.31;;;10.61
76901;BMP280;65859;43.020;25.096;2023-01-23T07:15:17;100223.25;;;10.87
76901;BMP280;65859;43.020;25.096;2023-01-23T07:17:44;100224.28;;;11.13
76901;BMP280;65859;43.020;25.096;2023-01-23T07:20:10;100223.59;;;11.07
76901;BMP280;65859;43.020;25.096;2023-01-23T07:22:37;100226.53;;;11.42
76901;BMP280;65859;43.020;25.096;2023-01-23T07:25:04;100234.13;;;11.80
76901;BMP280;65859;43.020;25.096;2023-01-23T07:27:30;100223.78;;;11.78
76901;BMP280;65859;43.020;25.096;2023-01-23T07:29:59;100241.53;;;11.91
76901;BMP280;65859;43.020;25.096;2023-01-23T07:32:25;100236.84;;;11.97
76901;BMP280;65859;43.020;25.096;2023-01-23T07:34:52;100234.81;;;11.63
76901;BMP280;65859;43.020;25.096;2023-01-23T07:37:18;100245.94;;;10.93
76901;BMP280;65859;43.020;25.096;2023-01-23T07:39:44;100243.13;;;10.62
76901;BMP280;65859;43.020;25.096;2023-01-23T07:42:11;100252.06;;;10.52
76901;BMP280;65859;43.020;25.096;2023-01-23T07:44:37;100244.28;;;10.28
76901;BMP280;65859;43.020;25.096;2023-01-23T07:47:03;100251.25;;;10.24
76901;BMP280;65859;43.020;25.096;2023-01-23T07:49:30;100249.91;;;10.26
76901;BMP280;65859;43.020;25.096;2023-01-23T07:51:56;100251.34;;;10.33
76901;BMP280;65859;43.020;25.096;2023-01-23T07:54:22;100252.16;;;10.19
76901;BMP280;65859;43.020;25.096;2023-01-23T07:56:50;100241.03;;;10.17
76901;BMP280;65859;43.020;25.096;2023-01-23T07:59:16;100245.63;;;10.25
76901;BMP280;65859;43.020;25.096;2023-01-23T08:01:44;100234.63;;;10.18
76901;BMP280;65859;43.020;25.096;2023-01-23T08:04:10;100247.63;;;10.20
76901;BMP280;65859;43.020;25.096;2023-01-23T08:06:36;100251.75;;;10.26
76901;BMP280;65859;43.020;25.096;2023-01-23T08:09:03;100256.75;;;10.27
76901;BMP280;65859;43.020;25.096;2023-01-23T08:11:29;100250.09;;;10.30
76901;BMP280;65859;43.020;25.096;2023-01-23T08:13:55;100247.16;;;10.45
76901;BMP280;65859;43.020;25.096;2023-01-23T08:16:22;100239.06;;;10.37
76901;BMP280;65859;43.020;25.096;2023-01-23T08:18:48;100241.72;;;10.37
76901;BMP280;65859;43.020;25.096;2023-01-23T08:21:15;100254.00;;;10.33
76901;BMP280;65859;43.020;25.096;2023-01-23T08:23:41;100237.91;;;10.43
76901;BMP280;65859;43.020;25.096;2023-01-23T08:26:15;100251.47;;;10.55
76901;BMP280;65859;43.020;25.096;2023-01-23T08:28:42;100229.19;;;10.56
76901;BMP280;65859;43.020;25.096;2023-01-23T08:31:10;100247.84;;;10.78
76901;BMP280;65859;43.020;25.096;2023-01-23T08:33:38;100251.91;;;10.98
76901;BMP280;65859;43.020;25.096;2023-01-23T08:36:06;100239.28;;;11.18
76901;BMP280;65859;43.020;25.096;2023-01-23T08:38:32;100245.38;;;10.96
76901;BMP280;65859;43.020;25.096;2023-01-23T08:41:00;100245.06;;;10.97
76901;BMP280;65859;43.020;25.096;2023-01-23T08:43:27;100246.34;;;11.00
76901;BMP280;65859;43.020;25.096;2023-01-23T08:45:55;100256.19;;;11.35
76901;BMP280;65859;43.020;25.096;2023-01-23T08:48:23;100239.91;;;11.15
76901;BMP280;65859;43.020;25.096;2023-01-23T08:50:56;100247.72;;;11.33
76901;BMP280;65859;43.020;25.096;2023-01-23T08:53:23;100245.53;;;11.35
76901;BMP280;65859;43.020;25.096;2023-01-23T08:55:49;100241.84;;;11.37
76901;BMP280;65859;43.020;25.096;2023-01-23T08:58:15;100254.00;;;11.82
76901;BMP280;65859;43.020;25.096;2023-01-23T09:00:42;100253.06;;;11.56
76901;BMP280;65859;43.020;25.096;2023-01-23T09:03:09;100255.50;;;11.52
76901;BMP280;65859;43.020;25.096;2023-01-23T09:05:36;100254.97;;;11.64
76901;BMP280;65859;43.020;25.096;2023-01-23T09:08:03;100248.31;;;11.75
76901;BMP280;65859;43.020;25.096;2023-01-23T09:10:30;100258.13;;;11.44
76901;BMP280;65859;43.020;25.096;2023-01-23T09:12:57;100261.59;;;11.98
76901;BMP280;65859;43.020;25.096;2023-01-23T09:15:23;100258.06;;;11.57
76901;BMP280;65859;43.020;25.096;2023-01-23T09:17:50;100251.22;;;11.65
76901;BMP280;65859;43.020;25.096;2023-01-23T09:20:16;100243.84;;;11.84
76901;BMP280;65859;43.020;25.096;2023-01-23T09:22:43;100256.56;;;12.27
76901;BMP280;65859;43.020;25.096;2023-01-23T09:25:10;100262.22;;;13.60
76901;BMP280;65859;43.020;25.096;2023-01-23T09:27:37;100244.72;;;12.42
76901;BMP280;65859;43.020;25.096;2023-01-23T09:30:03;100246.88;;;11.91
76901;BMP280;65859;43.020;25.096;2023-01-23T09:32:30;100254.75;;;12.36
76901;BMP280;65859;43.020;25.096;2023-01-23T09:34:56;100243.41;;;12.22
76901;BMP280;65859;43.020;25.096;2023-01-23T09:37:24;100247.38;;;12.42
76901;BMP280;65859;43.020;25.096;2023-01-23T09:39:50;100242.38;;;12.32
76901;BMP280;65859;43.020;25.096;2023-01-23T09:42:20;100241.78;;;12.12
76901;BMP280;65859;43.020;25.096;2023-01-23T09:44:51;100241.47;;;11.83
76901;BMP280;65859;43.020;25.096;2023-01-23T09:47:21;100242.09;;;11.80
76901;BMP280;65859;43.020;25.096;2023-01-23T09:50:05;100245.63;;;11.89
76901;BMP280;65859;43.020;25.096;2023-01-23T09:52:47;100234.38;;;11.70
76901;BMP280;65859;43.020;25.096;2023-01-23T09:55:21;100243.97;;;11.79
76901;BMP280;65859;43.020;25.096;2023-01-23T09:57:53;100244.50;;;11.68
76901;BMP280;65859;43.020;25.096;2023-01-23T10:00:25;100240.34;;;11.75
76901;BMP280;65859;43.020;25.096;2023-01-23T10:02:53;100227.25;;;12.58
76901;BMP280;65859;43.020;25.096;2023-01-23T10:05:58;100226.34;;;12.23
76901;BMP280;65859;43.020;25.096;2023-01-23T10:16:49;100208.72;;;12.05
76901;BMP280;65859;43.020;25.096;2023-01-23T10:27:32;100211.75;;;12.20
76901;BMP280;65859;43.020;25.096;2023-01-23T10:30:06;100217.44;;;11.97
76901;BMP280;65859;43.020;25.096;2023-01-23T10:38:26;100214.97;;;16.03
76901;BMP280;65859;43.020;25.096;2023-01-23T10:40:57;100202.44;;;14.08
76901;BMP280;65859;43.020;25.096;2023-01-23T10:43:39;100203.38;;;19.21
76901;BMP280;65859;43.020;25.096;2023-01-23T10:46:15;100195.97;;;14.09
76901;BMP280;65859;43.020;25.096;2023-01-23T10:54:15;100196.72;;;12.73
76901;BMP280;65859;43.020;25.096;2023-01-23T10:56:56;100187.56;;;12.48
76901;BMP280;65859;43.020;25.096;2023-01-23T11:02:28;100190.28;;;12.74
76901;BMP280;65859;43.020;25.096;2023-01-23T11:04:55;100194.41;;;16.19
76901;BMP280;65859;43.020;25.096;2023-01-23T11:07:27;100188.00;;;13.54
76901;BMP280;65859;43.020;25.096;2023-01-23T11:09:59;100186.34;;;12.71
76901;BMP280;65859;43.020;25.096;2023-01-23T11:12:29;100199.16;;;18.78
76901;BMP280;65859;43.020;25.096;2023-01-23T11:15:31;100217.28;;;23.58
76901;BMP280;65859;43.020;25.096;2023-01-23T11:17:59;100223.66;;;24.14
76901;BMP280;65859;43.020;25.096;2023-01-23T11:20:30;100225.88;;;26.25
76901;BMP280;65859;43.020;25.096;2023-01-23T11:23:01;100196.78;;;22.44
76901;BMP280;65859;43.020;25.096;2023-01-23T11:25:39;100223.09;;;24.96
76901;BMP280;65859;43.020;25.096;2023-01-23T11:28:25;100224.72;;;23.30
76901;BMP280;65859;43.020;25.096;2023-01-23T11:36:06;100191.66;;;16.03
76901;BMP280;65859;43.020;25.096;2023-01-23T11:38:42;100217.50;;;17.98
76901;BMP280;65859;43.020;25.096;2023-01-23T11:41:11;100205.84;;;19.07
76901;BMP280;65859;43.020;25.096;2023-01-23T11:43:40;100203.66;;;17.18
76901;BMP280;65859;43.020;25.096;2023-01-23T11:52:13;100206.34;;;15.60
76901;BMP280;65859;43.020;25.096;2023-01-23T12:00:42;100227.44;;;20.80
76901;BMP280;65859;43.020;25.096;2023-01-23T12:08:44;100211.44;;;13.31
76901;BMP280;65859;43.020;25.096;2023-01-23T12:11:17;100215.06;;;12.83
76901;BMP280;65859;43.020;25.096;2023-01-23T12:21:35;100209.41;;;12.19
76901;BMP280;65859;43.020;25.096;2023-01-23T12:27:19;100200.09;;;12.47
76901;BMP280;65859;43.020;25.096;2023-01-23T12:30:27;100240.75;;;13.22
76901;BMP280;65859;43.020;25.096;2023-01-23T12:38:58;100233.09;;;14.73
76901;BMP280;65859;43.020;25.096;2023-01-23T12:41:40;100229.63;;;12.77
76901;BMP280;65859;43.020;25.096;2023-01-23T12:44:25;100231.59;;;12.54
76901;BMP280;65859;43.020;25.096;2023-01-23T12:47:04;100237.91;;;11.87
76901;BMP280;65859;43.020;25.096;2023-01-23T12:52:50;100238.38;;;11.89
76901;BMP280;65859;43.020;25.096;2023-01-23T12:55:28;100234.69;;;12.39
76901;BMP280;65859;43.020;25.096;2023-01-23T12:57:57;100237.91;;;12.75
76901;BMP280;65859;43.020;25.096;2023-01-23T13:08:29;100229.13;;;11.56
76901;BMP280;65859;43.020;25.096;2023-01-23T13:13:50;100235.44;;;11.46
76901;BMP280;65859;43.020;25.096;2023-01-23T13:16:19;100236.94;;;11.16
76901;BMP280;65859;43.020;25.096;2023-01-23T13:19:00;100225.97;;;11.31
76901;BMP280;65859;43.020;25.096;2023-01-23T13:22:23;100244.66;;;11.04
76901;BMP280;65859;43.020;25.096;2023-01-23T13:27:49;100245.06;;;10.84
76901;BMP280;65859;43.020;25.096;2023-01-23T13:32:58;100251.66;;;10.59
76901;BMP280;65859;43.020;25.096;2023-01-23T13:49:34;100270.69;;;10.33
76901;BMP280;65859;43.020;25.096;2023-01-23T13:52:25;100273.88;;;10.63
76901;BMP280;65859;43.020;25.096;2023-01-23T13:55:29;100264.63;;;10.33
76901;BMP280;65859;43.020;25.096;2023-01-23T13:58:20;100263.25;;;10.21
76901;BMP280;65859;43.020;25.096;2023-01-23T14:01:04;100271.72;;;10.37
76901;BMP280;65859;43.020;25.096;2023-01-23T14:03:51;100274.38;;;10.23
76901;BMP280;65859;43.020;25.096;2023-01-23T14:06:39;100285.72;;;10.24
76901;BMP280;65859;43.020;25.096;2023-01-23T14:09:26;100288.59;;;10.27
76901;BMP280;65859;43.020;25.096;2023-01-23T14:12:00;100294.19;;;10.12
76901;BMP280;65859;43.020;25.096;2023-01-23T14:14:33;100290.84;;;10.20
76901;BMP280;65859;43.020;25.096;2023-01-23T14:17:25;100299.13;;;10.00
76901;BMP280;65859;43.020;25.096;2023-01-23T14:19:55;100309.03;;;9.94
76901;BMP280;65859;43.020;25.096;2023-01-23T14:22:23;100300.38;;;9.89
76901;BMP280;65859;43.020;25.096;2023-01-23T14:24:53;100308.53;;;9.73
76901;BMP280;65859;43.020;25.096;2023-01-23T14:27:28;100306.53;;;9.65
76901;BMP280;65859;43.020;25.096;2023-01-23T14:30:01;100311.97;;;9.74
76901;BMP280;65859;43.020;25.096;2023-01-23T14:32:31;100310.13;;;9.75
76901;BMP280;65859;43.020;25.096;2023-01-23T14:34:58;100299.81;;;9.73
76901;BMP280;65859;43.020;25.096;2023-01-23T14:37:26;100299.94;;;9.82
76901;BMP280;65859;43.020;25.096;2023-01-23T14:39:55;100307.06;;;9.67
76901;BMP280;65859;43.020;25.096;2023-01-23T14:42:28;100308.84;;;9.53
76901;BMP280;65859;43.020;25.096;2023-01-23T14:44:57;100313.34;;;9.71
76901;BMP280;65859;43.020;25.096;2023-01-23T14:47:32;100313.03;;;9.35
76901;BMP280;65859;43.020;25.096;2023-01-23T14:50:01;100307.44;;;9.37
76901;BMP280;65859;43.020;25.096;2023-01-23T14:52:29;100299.47;;;9.18
76901;BMP280;65859;43.020;25.096;2023-01-23T14:54:57;100314.47;;;9.28
76901;BMP280;65859;43.020;25.096;2023-01-23T14:57:25;100321.09;;;9.06
76901;BMP280;65859;43.020;25.096;2023-01-23T14:59:55;100308.91;;;8.81
76901;BMP280;65859;43.020;25.096;2023-01-23T15:07:55;100325.97;;;8.70
76901;BMP280;65859;43.020;25.096;2023-01-23T15:10:28;100309.88;;;8.67
76901;BMP280;65859;43.020;25.096;2023-01-23T15:13:19;100328.31;;;8.72
76901;BMP280;65859;43.020;25.096;2023-01-23T15:15:55;100329.38;;;8.71
76901;BMP280;65859;43.020;25.096;2023-01-23T15:18:25;100333.28;;;8.78
76901;BMP280;65859;43.020;25.096;2023-01-23T15:23:27;100336.44;;;8.51
76901;BMP280;65859;43.020;25.096;2023-01-23T15:26:34;100340.63;;;8.57
76901;BMP280;65859;43.020;25.096;2023-01-23T15:37:04;100343.13;;;8.44
76901;BMP280;65859;43.020;25.096;2023-01-23T15:39:32;100342.84;;;8.45
76901;BMP280;65859;43.020;25.096;2023-01-23T15:42:24;100346.22;;;8.56
76901;BMP280;65859;43.020;25.096;2023-01-23T15:44:47;100344.28;;;8.32
76901;BMP280;65859;43.020;25.096;2023-01-23T15:47:15;100349.16;;;8.49
76901;BMP280;65859;43.020;25.096;2023-01-23T15:49:41;100346.34;;;8.41
76901;BMP280;65859;43.020;25.096;2023-01-23T15:52:22;100359.03;;;8.38
76901;BMP280;65859;43.020;25.096;2023-01-23T15:54:55;100362.97;;;8.46
76901;BMP280;65859;43.020;25.096;2023-01-23T15:57:22;100357.88;;;8.21
76901;BMP280;65859;43.020;25.096;2023-01-23T15:59:49;100364.66;;;8.27
76901;BMP280;65859;43.020;25.096;2023-01-23T16:02:20;100357.94;;;8.05
76901;BMP280;65859;43.020;25.096;2023-01-23T16:04:47;100361.09;;;8.07
76901;BMP280;65859;43.020;25.096;2023-01-23T16:07:24;100362.44;;;8.10
76901;BMP280;65859;43.020;25.096;2023-01-23T16:09:52;100368.56;;;8.00
76901;BMP280;65859;43.020;25.096;2023-01-23T16:12:20;100365.41;;;7.93
76901;BMP280;65859;43.020;25.096;2023-01-23T16:14:48;100362.28;;;7.91
76901;BMP280;65859;43.020;25.096;2023-01-23T16:17:14;100365.31;;;8.08
76901;BMP280;65859;43.020;25.096;2023-01-23T16:19:40;100369.56;;;8.04
76901;BMP280;65859;43.020;25.096;2023-01-23T16:22:11;100376.38;;;8.21
76901;BMP280;65859;43.020;25.096;2023-01-23T16:24:41;100376.69;;;8.09
76901;BMP280;65859;43.020;25.096;2023-01-23T16:27:17;100379.06;;;8.10
76901;BMP280;65859;43.020;25.096;2023-01-23T16:29:44;100384.66;;;8.04
76901;BMP280;65859;43.020;25.096;2023-01-23T16:32:11;100396.00;;;8.04